createdAt,value
2023-06-07T00:00:31.653Z,16.73
2023-06-07T00:01:31.633Z,16.68
2023-06-07T00:02:42.945Z,16.64
2023-06-07T00:03:32.829Z,16.60
2023-06-07T00:04:31.695Z,16.53
2023-06-07T00:05:31.607Z,16.49
2023-06-07T00:06:31.552Z,16.41
2023-06-07T00:07:31.579Z,16.31
2023-06-07T00:08:31.571Z,16.27
2023-06-07T00:09:31.521Z,16.21
2023-06-07T00:10:31.540Z,16.24
2023-06-07T00:11:31.555Z,16.24
2023-06-07T00:12:31.514Z,16.24
2023-06-07T00:13:31.503Z,16.27
2023-06-07T00:14:31.483Z,16.27
2023-06-07T00:15:31.468Z,16.31
2023-06-07T00:16:31.464Z,16.30
2023-06-07T00:17:31.659Z,16.31
2023-06-07T00:18:31.454Z,16.31
2023-06-07T00:19:31.461Z,16.33
2023-06-07T00:20:31.394Z,16.35
2023-06-07T00:21:31.471Z,16.39
2023-06-07T00:22:31.431Z,16.42
2023-06-07T00:23:31.414Z,16.43
2023-06-07T00:24:31.440Z,16.46
2023-06-07T00:25:31.389Z,16.49
2023-06-07T00:26:31.358Z,16.52
2023-06-07T00:27:31.329Z,16.53
2023-06-07T00:28:31.310Z,16.52
2023-06-07T00:29:31.325Z,16.50
2023-06-07T00:30:31.321Z,16.50
2023-06-07T00:31:31.405Z,16.46
2023-06-07T00:32:31.336Z,16.38
2023-06-07T00:33:31.258Z,16.31
2023-06-07T00:34:31.305Z,16.30
2023-06-07T00:35:31.284Z,16.25
2023-06-07T00:36:31.248Z,16.24
2023-06-07T00:37:31.246Z,16.25
2023-06-07T00:38:31.219Z,16.27
2023-06-07T00:39:31.242Z,16.28
2023-06-07T00:40:31.192Z,16.30
2023-06-07T00:41:31.215Z,16.31
2023-06-07T00:42:31.145Z,16.33
2023-06-07T00:43:31.170Z,16.34
2023-06-07T00:44:31.146Z,16.38
2023-06-07T00:45:31.204Z,16.39
2023-06-07T00:46:31.160Z,16.42
2023-06-07T00:47:31.196Z,16.43
2023-06-07T00:48:31.199Z,16.45
2023-06-07T00:49:31.101Z,16.48
2023-06-07T00:50:31.074Z,16.50
2023-06-07T00:51:31.075Z,16.52
2023-06-07T00:52:31.061Z,16.53
2023-06-07T00:53:31.024Z,16.53
2023-06-07T00:54:31.078Z,16.57
2023-06-07T00:55:31.013Z,16.56
2023-06-07T00:56:31.021Z,16.56
2023-06-07T00:57:31.020Z,16.53
2023-06-07T00:58:31.039Z,16.50
2023-06-07T00:59:31.057Z,16.50
2023-06-07T01:00:30.956Z,16.48
2023-06-07T01:01:31.083Z,16.46
2023-06-07T01:02:30.994Z,16.45
2023-06-07T01:03:31.027Z,16.43
2023-06-07T01:04:30.946Z,16.42
2023-06-07T01:05:30.974Z,16.43
2023-06-07T01:06:30.940Z,16.42
2023-06-07T01:07:30.871Z,16.39
2023-06-07T01:08:30.916Z,16.34
2023-06-07T01:09:30.846Z,16.33
2023-06-07T01:10:30.890Z,16.30
2023-06-07T01:11:30.892Z,16.30
2023-06-07T01:12:30.902Z,16.33
2023-06-07T01:13:30.833Z,16.35
2023-06-07T01:14:30.834Z,16.38
2023-06-07T01:15:30.797Z,16.39
2023-06-07T01:16:30.882Z,16.39
2023-06-07T01:17:30.826Z,16.41
2023-06-07T01:18:30.773Z,16.41
2023-06-07T01:19:30.759Z,16.42
2023-06-07T01:20:30.739Z,16.42
2023-06-07T01:21:30.775Z,16.42
2023-06-07T01:22:30.717Z,16.45
2023-06-07T01:23:30.714Z,16.45
2023-06-07T01:24:30.703Z,16.45
2023-06-07T01:25:30.691Z,16.45
2023-06-07T01:26:30.695Z,16.48
2023-06-07T01:27:30.683Z,16.48
2023-06-07T01:28:30.645Z,16.49
2023-06-07T01:29:30.645Z,16.50
2023-06-07T01:30:30.621Z,16.50
2023-06-07T01:31:30.656Z,16.52
2023-06-07T01:32:30.697Z,16.53
2023-06-07T01:33:30.592Z,16.57
2023-06-07T01:34:30.575Z,16.57
2023-06-07T01:35:30.572Z,16.58
2023-06-07T01:36:30.567Z,16.58
2023-06-07T01:37:30.610Z,16.58
2023-06-07T01:38:30.536Z,16.58
2023-06-07T01:39:30.519Z,16.61
2023-06-07T01:40:30.517Z,16.63
2023-06-07T01:41:30.515Z,16.61
2023-06-07T01:42:30.504Z,16.61
2023-06-07T01:43:30.533Z,16.63
2023-06-07T01:44:30.462Z,16.66
2023-06-07T01:45:30.462Z,16.64
2023-06-07T01:46:30.456Z,16.64
2023-06-07T01:47:30.464Z,16.64
2023-06-07T01:48:30.408Z,16.63
2023-06-07T01:49:30.464Z,16.61
2023-06-07T01:50:30.418Z,16.61
2023-06-07T01:51:30.374Z,16.63
2023-06-07T01:52:30.392Z,16.61
2023-06-07T01:53:30.364Z,16.61
2023-06-07T01:54:30.360Z,16.63
2023-06-07T01:55:30.421Z,16.61
2023-06-07T01:56:30.330Z,16.60
2023-06-07T01:57:30.301Z,16.63
2023-06-07T01:58:30.585Z,16.63
2023-06-07T01:59:30.286Z,16.66
2023-06-07T02:00:30.290Z,16.67
2023-06-07T02:01:30.312Z,16.71
2023-06-07T02:02:30.282Z,16.73
2023-06-07T02:03:30.281Z,16.75
2023-06-07T02:04:30.231Z,16.76
2023-06-07T02:05:30.250Z,16.75
2023-06-07T02:06:30.205Z,16.76
2023-06-07T02:07:30.247Z,16.76
2023-06-07T02:08:30.193Z,16.78
2023-06-07T02:09:30.182Z,16.78
2023-06-07T02:10:30.178Z,16.78
2023-06-07T02:11:30.157Z,16.76
2023-06-07T02:12:30.150Z,16.76
2023-06-07T02:13:30.214Z,16.78
2023-06-07T02:14:30.131Z,16.75
2023-06-07T02:15:30.097Z,16.73
2023-06-07T02:16:30.132Z,16.70
2023-06-07T02:17:30.168Z,16.71
2023-06-07T02:18:30.125Z,16.71
2023-06-07T02:19:30.121Z,16.70
2023-06-07T02:20:30.055Z,16.67
2023-06-07T02:21:30.036Z,16.66
2023-06-07T02:22:30.120Z,16.66
2023-06-07T02:23:30.121Z,16.67
2023-06-07T02:24:30.036Z,16.67
2023-06-07T02:25:30.043Z,16.67
2023-06-07T02:26:30.002Z,16.68
2023-06-07T02:27:29.981Z,16.70
2023-06-07T02:28:29.976Z,16.73
2023-06-07T02:29:29.969Z,16.73
2023-06-07T02:30:29.996Z,16.76
2023-06-07T02:31:29.974Z,16.78
2023-06-07T02:32:29.940Z,16.79
2023-06-07T02:33:29.915Z,16.79
2023-06-07T02:34:29.922Z,16.81
2023-06-07T02:35:29.890Z,16.81
2023-06-07T02:36:29.909Z,16.79
2023-06-07T02:37:29.858Z,16.79
2023-06-07T02:38:29.855Z,16.81
2023-06-07T02:39:29.904Z,16.82
2023-06-07T02:40:29.845Z,16.82
2023-06-07T02:41:29.866Z,16.83
2023-06-07T02:42:29.809Z,16.85
2023-06-07T02:43:29.800Z,16.85
2023-06-07T02:44:29.838Z,16.85
2023-06-07T02:45:29.771Z,16.85
2023-06-07T02:46:29.884Z,16.88
2023-06-07T02:47:29.779Z,16.88
2023-06-07T02:48:29.739Z,16.91
2023-06-07T02:49:29.753Z,16.93
2023-06-07T02:50:29.736Z,16.93
2023-06-07T02:51:29.765Z,16.93
2023-06-07T02:52:29.683Z,16.91
2023-06-07T02:53:29.703Z,16.89
2023-06-07T02:54:29.683Z,16.89
2023-06-07T02:55:29.746Z,16.91
2023-06-07T02:56:29.659Z,16.93
2023-06-07T02:57:29.639Z,16.93
2023-06-07T02:58:29.619Z,16.94
2023-06-07T02:59:29.621Z,16.96
2023-06-07T03:00:29.662Z,16.96
2023-06-07T03:01:29.683Z,16.93
2023-06-07T03:02:29.711Z,16.89
2023-06-07T03:03:29.646Z,16.89
2023-06-07T03:04:29.559Z,16.91
2023-06-07T03:05:29.591Z,16.91
2023-06-07T03:06:29.577Z,16.89
2023-06-07T03:07:29.559Z,16.89
2023-06-07T03:08:29.521Z,16.89
2023-06-07T03:09:29.566Z,16.89
2023-06-07T03:10:29.482Z,16.88
2023-06-07T03:11:29.526Z,16.89
2023-06-07T03:12:29.499Z,16.93
2023-06-07T03:13:29.467Z,16.94
2023-06-07T03:14:29.460Z,16.96
2023-06-07T03:15:29.428Z,16.96
2023-06-07T03:16:29.439Z,16.98
2023-06-07T03:17:29.449Z,16.97
2023-06-07T03:18:29.411Z,16.98
2023-06-07T03:19:29.436Z,17.00
2023-06-07T03:20:29.522Z,17.00
2023-06-07T03:21:29.363Z,16.98
2023-06-07T03:22:29.381Z,16.98
2023-06-07T03:23:29.424Z,16.98
2023-06-07T03:24:29.402Z,16.98
2023-06-07T03:25:29.329Z,16.98
2023-06-07T03:26:29.331Z,17.00
2023-06-07T03:27:29.311Z,16.98
2023-06-07T03:28:29.286Z,16.98
2023-06-07T03:29:29.319Z,16.98
2023-06-07T03:30:29.279Z,17.00
2023-06-07T03:31:29.327Z,16.98
2023-06-07T03:32:29.366Z,16.94
2023-06-07T03:33:29.225Z,16.96
2023-06-07T03:34:29.232Z,16.97
2023-06-07T03:35:29.266Z,16.97
2023-06-07T03:36:29.212Z,16.97
2023-06-07T03:37:29.236Z,17.00
2023-06-07T03:38:29.169Z,17.00
2023-06-07T03:39:29.203Z,16.98
2023-06-07T03:40:29.202Z,17.00
2023-06-07T03:41:29.178Z,17.03
2023-06-07T03:42:29.124Z,17.03
2023-06-07T03:43:29.112Z,17.04
2023-06-07T03:44:29.134Z,17.06
2023-06-07T03:45:29.125Z,17.06
2023-06-07T03:46:29.099Z,17.08
2023-06-07T03:47:29.139Z,17.11
2023-06-07T03:48:29.189Z,17.11
2023-06-07T03:49:29.062Z,17.11
2023-06-07T03:50:29.033Z,17.11
2023-06-07T03:51:29.050Z,17.07
2023-06-07T03:52:29.004Z,17.04
2023-06-07T03:53:29.047Z,17.01
2023-06-07T03:54:28.984Z,17.03
2023-06-07T03:55:28.978Z,17.03
2023-06-07T03:56:29.007Z,17.01
2023-06-07T03:57:28.981Z,17.00
2023-06-07T03:58:29.045Z,17.00
2023-06-07T03:59:28.922Z,17.03
2023-06-07T04:00:28.931Z,17.01
2023-06-07T04:01:28.940Z,17.01
2023-06-07T04:02:28.965Z,17.01
2023-06-07T04:03:29.090Z,17.03
2023-06-07T04:04:29.136Z,17.01
2023-06-07T04:05:28.882Z,17.03
2023-06-07T04:06:28.870Z,17.04
2023-06-07T04:07:28.870Z,17.04
2023-06-07T04:08:28.847Z,17.06
2023-06-07T04:09:28.836Z,17.06
2023-06-07T04:10:28.828Z,17.06
2023-06-07T04:11:28.847Z,17.07
2023-06-07T04:12:28.833Z,17.07
2023-06-07T04:13:28.781Z,17.07
2023-06-07T04:14:28.771Z,17.08
2023-06-07T04:15:28.771Z,17.08
2023-06-07T04:16:28.788Z,17.11
2023-06-07T04:17:28.740Z,17.12
2023-06-07T04:18:28.713Z,17.12
2023-06-07T04:19:28.709Z,17.14
2023-06-07T04:20:28.723Z,17.12
2023-06-07T04:21:28.718Z,17.12
2023-06-07T04:22:28.679Z,17.12
2023-06-07T04:23:28.681Z,17.12
2023-06-07T04:24:28.670Z,17.15
2023-06-07T04:25:28.655Z,17.15
2023-06-07T04:26:28.666Z,17.12
2023-06-07T04:27:28.650Z,17.15
2023-06-07T04:28:28.621Z,17.16
2023-06-07T04:29:28.604Z,17.16
2023-06-07T04:30:28.610Z,17.18
2023-06-07T04:31:28.625Z,17.19
2023-06-07T04:32:28.648Z,17.21
2023-06-07T04:33:28.537Z,17.23
2023-06-07T04:34:28.544Z,17.26
2023-06-07T04:35:28.528Z,17.30
2023-06-07T04:36:28.539Z,17.34
2023-06-07T04:37:28.538Z,17.40
2023-06-07T04:38:28.484Z,17.41
2023-06-07T04:39:28.489Z,17.31
2023-06-07T04:40:28.457Z,17.23
2023-06-07T04:41:28.497Z,17.18
2023-06-07T04:42:28.472Z,17.18
2023-06-07T04:43:28.514Z,17.21
2023-06-07T04:44:28.423Z,17.22
2023-06-07T04:45:28.421Z,17.21
2023-06-07T04:46:28.592Z,17.19
2023-06-07T04:47:28.459Z,17.14
2023-06-07T04:48:28.430Z,17.07
2023-06-07T04:49:28.396Z,17.08
2023-06-07T04:50:28.373Z,17.11
2023-06-07T04:51:28.341Z,17.16
2023-06-07T04:52:29.590Z,17.16
2023-06-07T04:53:28.349Z,17.19
2023-06-07T04:54:28.375Z,17.21
2023-06-07T04:55:28.306Z,17.26
2023-06-07T04:56:28.298Z,17.28
2023-06-07T04:57:28.273Z,17.30
2023-06-07T04:58:28.254Z,17.26
2023-06-07T04:59:28.264Z,17.25
2023-06-07T05:00:28.278Z,17.25
2023-06-07T05:01:28.295Z,17.23
2023-06-07T05:02:28.215Z,17.28
2023-06-07T05:03:28.235Z,17.34
2023-06-07T05:04:28.209Z,17.40
2023-06-07T05:05:28.264Z,17.46
2023-06-07T05:06:28.200Z,17.48
2023-06-07T05:07:28.204Z,17.51
2023-06-07T05:08:28.177Z,17.51
2023-06-07T05:09:30.714Z,17.48
2023-06-07T05:10:28.172Z,17.41
2023-06-07T05:11:28.171Z,17.38
2023-06-07T05:12:28.120Z,17.37
2023-06-07T05:13:28.106Z,17.40
2023-06-07T05:14:28.109Z,17.46
2023-06-07T05:15:28.072Z,17.51
2023-06-07T05:16:28.126Z,17.54
2023-06-07T05:17:28.059Z,17.58
2023-06-07T05:18:28.033Z,17.62
2023-06-07T05:19:28.095Z,17.63
2023-06-07T05:20:28.005Z,17.64
2023-06-07T05:21:28.041Z,17.64
2023-06-07T05:22:27.980Z,17.62
2023-06-07T05:23:28.158Z,17.62
2023-06-07T05:24:27.997Z,17.62
2023-06-07T05:25:27.967Z,17.64
2023-06-07T05:26:27.985Z,17.64
2023-06-07T05:27:27.970Z,17.64
2023-06-07T05:28:27.915Z,17.63
2023-06-07T05:29:27.929Z,17.64
2023-06-07T05:30:27.922Z,17.68
2023-06-07T05:31:27.976Z,17.66
2023-06-07T05:32:27.940Z,17.71
2023-06-07T05:33:27.889Z,17.74
2023-06-07T05:34:27.892Z,17.75
2023-06-07T05:35:27.895Z,17.77
2023-06-07T05:36:27.848Z,17.81
2023-06-07T05:37:27.871Z,17.82
2023-06-07T05:38:27.848Z,17.82
2023-06-07T05:39:27.821Z,17.84
2023-06-07T05:40:27.822Z,17.89
2023-06-07T05:41:27.831Z,17.95
2023-06-07T05:42:27.780Z,18.00
2023-06-07T05:43:27.757Z,18.08
2023-06-07T05:44:27.760Z,18.14
2023-06-07T05:45:27.740Z,18.18
2023-06-07T05:46:27.782Z,18.21
2023-06-07T05:47:27.762Z,18.21
2023-06-07T05:48:27.692Z,18.20
2023-06-07T05:49:27.715Z,18.12
2023-06-07T05:50:27.675Z,18.10
2023-06-07T05:51:27.719Z,18.12
2023-06-07T05:52:27.681Z,18.07
2023-06-07T05:53:27.670Z,18.07
2023-06-07T05:54:27.622Z,18.12
2023-06-07T05:55:27.656Z,18.11
2023-06-07T05:56:27.639Z,18.14
2023-06-07T05:57:27.600Z,18.17
2023-06-07T05:58:27.654Z,18.17
2023-06-07T05:59:27.622Z,18.20
2023-06-07T06:00:27.575Z,18.23
2023-06-07T06:01:27.583Z,18.26
2023-06-07T06:02:27.589Z,18.32
2023-06-07T06:03:27.538Z,18.35
2023-06-07T06:04:27.529Z,18.35
2023-06-07T06:05:27.554Z,18.39
2023-06-07T06:06:27.503Z,18.47
2023-06-07T06:07:27.486Z,18.54
2023-06-07T06:08:27.692Z,18.63
2023-06-07T06:09:27.474Z,18.67
2023-06-07T06:10:27.459Z,18.78
2023-06-07T06:11:27.615Z,18.81
2023-06-07T06:12:27.434Z,18.81
2023-06-07T06:13:27.430Z,18.80
2023-06-07T06:14:27.422Z,18.76
2023-06-07T06:15:27.407Z,18.80
2023-06-07T06:16:27.447Z,18.85
2023-06-07T06:17:27.393Z,18.95
2023-06-07T06:18:27.389Z,19.06
2023-06-07T06:19:27.369Z,19.14
2023-06-07T06:20:27.347Z,19.22
2023-06-07T06:21:27.374Z,19.33
2023-06-07T06:22:27.343Z,19.39
2023-06-07T06:23:27.305Z,19.44
2023-06-07T06:24:27.307Z,19.48
2023-06-07T06:25:27.301Z,19.48
2023-06-07T06:26:27.301Z,19.44
2023-06-07T06:27:27.310Z,19.44
2023-06-07T06:28:27.245Z,19.37
2023-06-07T06:29:27.231Z,19.25
2023-06-07T06:30:27.243Z,19.16
2023-06-07T06:31:27.353Z,19.08
2023-06-07T06:32:27.237Z,19.04
2023-06-07T06:33:27.193Z,18.99
2023-06-07T06:34:27.172Z,18.95
2023-06-07T06:35:27.210Z,18.94
2023-06-07T06:36:27.161Z,18.92
2023-06-07T06:37:27.197Z,18.88
2023-06-07T06:38:27.148Z,18.87
2023-06-07T06:39:27.113Z,18.88
2023-06-07T06:40:27.175Z,18.90
2023-06-07T06:41:27.131Z,18.88
2023-06-07T06:42:27.090Z,18.87
2023-06-07T06:43:27.077Z,18.90
2023-06-07T06:44:27.077Z,18.87
2023-06-07T06:45:30.084Z,18.91
2023-06-07T06:46:27.070Z,18.92
2023-06-07T06:47:27.188Z,18.94
2023-06-07T06:48:27.052Z,18.95
2023-06-07T06:49:27.017Z,18.98
2023-06-07T06:51:26.993Z,19.00
2023-06-07T06:52:26.970Z,19.06
2023-06-07T06:53:26.997Z,19.11
2023-06-07T06:54:26.946Z,19.19
2023-06-07T06:55:26.992Z,19.28
2023-06-07T06:56:26.966Z,19.37
2023-06-07T06:57:26.931Z,19.40
2023-06-07T06:58:26.963Z,19.47
2023-06-07T06:59:26.938Z,19.55
2023-06-07T07:00:27.954Z,19.59
2023-06-07T07:01:26.900Z,19.62
2023-06-07T07:02:26.976Z,19.63
2023-06-07T07:03:26.867Z,19.68
2023-06-07T07:04:26.903Z,19.74
2023-06-07T07:05:28.805Z,19.74
2023-06-07T07:06:27.590Z,19.73
2023-06-07T07:07:26.875Z,19.74
2023-06-07T07:08:26.815Z,19.80
2023-06-07T07:09:26.818Z,19.94
2023-06-07T07:10:26.793Z,20.10
2023-06-07T07:11:26.782Z,20.20
2023-06-07T07:12:26.780Z,20.28
2023-06-07T07:13:26.771Z,20.38
2023-06-07T07:14:26.765Z,20.52
2023-06-07T07:15:26.758Z,20.55
2023-06-07T07:16:26.748Z,20.61
2023-06-07T07:17:26.797Z,20.67
2023-06-07T07:18:26.703Z,20.73
2023-06-07T07:19:26.702Z,20.84
2023-06-07T07:20:26.719Z,20.89
2023-06-07T07:21:26.663Z,21.07
2023-06-07T07:22:28.813Z,21.19
2023-06-07T07:23:26.677Z,21.29
2023-06-07T07:24:26.869Z,21.40
2023-06-07T07:25:26.638Z,21.50
2023-06-07T07:26:26.646Z,21.56
2023-06-07T07:27:26.596Z,21.58
2023-06-07T07:28:26.616Z,21.47
2023-06-07T07:29:28.931Z,21.38
2023-06-07T07:30:26.557Z,21.28
2023-06-07T07:31:26.577Z,21.19
2023-06-07T07:32:26.569Z,21.04
2023-06-07T07:33:26.546Z,20.89
2023-06-07T07:34:26.582Z,20.77
2023-06-07T07:35:26.528Z,20.67
2023-06-07T07:36:26.531Z,20.64
2023-06-07T07:37:26.805Z,20.72
2023-06-07T07:38:26.509Z,20.74
2023-06-07T07:39:26.647Z,20.84
2023-06-07T07:40:26.468Z,20.85
2023-06-07T07:41:26.461Z,21.07
2023-06-07T07:42:26.420Z,21.27
2023-06-07T07:43:26.441Z,21.52
2023-06-07T07:44:26.421Z,21.75
2023-06-07T07:45:26.449Z,22.06
2023-06-07T07:46:26.428Z,22.40
2023-06-07T07:47:26.400Z,22.67
2023-06-07T07:48:26.383Z,22.77
2023-06-07T07:49:26.351Z,22.86
2023-06-07T07:50:26.430Z,22.65
2023-06-07T07:51:26.371Z,22.42
2023-06-07T07:52:26.361Z,22.35
2023-06-07T07:53:26.316Z,22.17
2023-06-07T07:54:27.795Z,22.12
2023-06-07T07:55:26.307Z,22.02
2023-06-07T07:56:26.302Z,21.92
2023-06-07T07:57:26.260Z,21.61
2023-06-07T07:58:26.298Z,21.46
2023-06-07T07:59:26.261Z,21.13
2023-06-07T08:00:26.268Z,20.97
2023-06-07T08:01:26.234Z,20.84
2023-06-07T08:02:26.290Z,20.80
2023-06-07T08:03:26.362Z,20.84
2023-06-07T08:04:26.263Z,20.82
2023-06-07T08:05:26.176Z,20.79
2023-06-07T08:06:26.183Z,20.61
2023-06-07T08:07:26.195Z,20.52
2023-06-07T08:08:26.206Z,20.36
2023-06-07T08:09:26.163Z,20.39
2023-06-07T08:10:26.145Z,20.42
2023-06-07T08:11:26.116Z,20.47
2023-06-07T08:12:26.110Z,20.50
2023-06-07T08:13:26.091Z,20.33
2023-06-07T08:14:26.111Z,20.16
2023-06-07T08:15:26.086Z,20.16
2023-06-07T08:16:26.097Z,20.10
2023-06-07T08:17:26.060Z,20.10
2023-06-07T08:18:26.057Z,20.18
2023-06-07T08:19:26.065Z,20.20
2023-06-07T08:20:26.006Z,20.21
2023-06-07T08:21:25.983Z,20.08
2023-06-07T08:22:25.985Z,20.11
2023-06-07T08:23:26.036Z,20.33
2023-06-07T08:24:26.027Z,20.54
2023-06-07T08:25:25.954Z,20.80
2023-06-07T08:26:25.957Z,20.95
2023-06-07T08:27:25.931Z,20.97
2023-06-07T08:28:25.905Z,20.99
2023-06-07T08:29:25.924Z,20.92
2023-06-07T08:30:25.929Z,21.01
2023-06-07T08:31:25.881Z,20.99
2023-06-07T08:32:25.933Z,20.98
2023-06-07T08:33:25.861Z,21.10
2023-06-07T08:34:25.851Z,21.29
2023-06-07T08:35:25.829Z,21.37
2023-06-07T08:36:25.887Z,21.52
2023-06-07T08:37:25.836Z,21.90
2023-06-07T08:38:25.815Z,22.02
2023-06-07T08:39:25.823Z,22.20
2023-06-07T08:40:25.802Z,22.39
2023-06-07T08:41:25.813Z,22.64
2023-06-07T08:42:25.782Z,22.90
2023-06-07T08:43:25.771Z,23.10
2023-06-07T08:44:25.751Z,23.47
2023-06-07T08:45:25.757Z,23.51
2023-06-07T08:46:25.728Z,23.83
2023-06-07T08:47:25.747Z,23.80
2023-06-07T08:48:25.725Z,23.48
2023-06-07T08:49:25.723Z,23.16
2023-06-07T08:50:25.721Z,22.73
2023-06-07T08:51:25.674Z,22.40
2023-06-07T08:52:25.688Z,21.75
2023-06-07T08:53:25.642Z,21.42
2023-06-07T08:54:25.635Z,21.46
2023-06-07T08:55:25.641Z,21.59
2023-06-07T08:56:25.691Z,21.61
2023-06-07T08:57:25.597Z,21.54
2023-06-07T08:58:25.662Z,21.62
2023-06-07T08:59:25.565Z,21.52
2023-06-07T09:00:25.559Z,21.44
2023-06-07T09:01:25.597Z,21.37
2023-06-07T09:02:25.725Z,21.38
2023-06-07T09:03:25.597Z,21.44
2023-06-07T09:04:25.532Z,21.42
2023-06-07T09:05:25.509Z,21.58
2023-06-07T09:06:25.518Z,21.74
2023-06-07T09:07:25.481Z,21.92
2023-06-07T09:08:25.473Z,22.21
2023-06-07T09:09:25.473Z,22.27
2023-06-07T09:10:25.530Z,22.09
2023-06-07T09:11:25.462Z,21.98
2023-06-07T09:12:25.467Z,22.00
2023-06-07T09:13:25.433Z,22.10
2023-06-07T09:14:25.399Z,22.30
2023-06-07T09:15:25.458Z,22.33
2023-06-07T09:16:28.487Z,22.21
2023-06-07T09:17:25.609Z,22.22
2023-06-07T09:18:25.401Z,22.39
2023-06-07T09:19:25.353Z,22.54
2023-06-07T09:20:25.350Z,22.62
2023-06-07T09:21:25.388Z,22.57
2023-06-07T09:22:25.335Z,22.40
2023-06-07T09:23:25.342Z,22.42
2023-06-07T09:24:25.307Z,22.58
2023-06-07T09:25:25.300Z,22.72
2023-06-07T09:26:25.294Z,22.77
2023-06-07T09:27:25.289Z,22.98
2023-06-07T09:28:25.265Z,23.22
2023-06-07T09:29:25.262Z,23.27
2023-06-07T09:30:25.235Z,23.39
2023-06-07T09:31:25.250Z,23.54
2023-06-07T09:32:25.364Z,23.38
2023-06-07T09:33:25.182Z,23.27
2023-06-07T09:34:25.258Z,23.00
2023-06-07T09:35:25.211Z,22.72
2023-06-07T09:36:25.219Z,22.42
2023-06-07T09:37:25.225Z,22.39
2023-06-07T09:38:25.154Z,22.47
2023-06-07T09:39:25.170Z,22.46
2023-06-07T09:40:25.122Z,22.49
2023-06-07T09:41:25.129Z,22.54
2023-06-07T09:42:25.124Z,22.61
2023-06-07T09:43:25.110Z,22.67
2023-06-07T09:44:25.063Z,22.65
2023-06-07T09:45:25.136Z,22.72
2023-06-07T09:46:25.093Z,22.88
2023-06-07T09:47:25.432Z,23.00
2023-06-07T09:48:25.118Z,23.15
2023-06-07T09:49:25.513Z,23.10
2023-06-07T09:50:25.015Z,22.92
2023-06-07T09:51:26.047Z,22.79
2023-06-07T09:52:25.139Z,22.85
2023-06-07T09:53:25.021Z,22.75
2023-06-07T09:54:24.974Z,22.79
2023-06-07T09:55:26.158Z,22.75
2023-06-07T09:56:25.072Z,22.82
2023-06-07T09:57:25.093Z,22.90
2023-06-07T09:58:24.920Z,22.80
2023-06-07T09:59:24.959Z,22.58
2023-06-07T10:00:24.898Z,22.61
2023-06-07T10:01:25.167Z,22.82
2023-06-07T10:02:24.918Z,23.07
2023-06-07T10:03:25.021Z,23.19
2023-06-07T10:04:24.929Z,22.90
2023-06-07T10:05:25.864Z,22.51
2023-06-07T10:06:24.911Z,22.52
2023-06-07T10:07:24.826Z,22.45
2023-06-07T10:08:24.833Z,22.45
2023-06-07T10:09:24.860Z,22.76
2023-06-07T10:10:24.786Z,22.85
2023-06-07T10:11:24.797Z,23.04
2023-06-07T10:12:24.815Z,23.70
2023-06-07T10:13:24.876Z,24.18
2023-06-07T10:14:24.788Z,24.30
2023-06-07T10:15:24.793Z,24.65
2023-06-07T10:16:24.810Z,24.78
2023-06-07T10:17:24.880Z,24.90
2023-06-07T10:18:24.784Z,25.50
2023-06-07T10:19:24.770Z,25.52
2023-06-07T10:20:24.691Z,25.69
2023-06-07T10:21:24.665Z,26.06
2023-06-07T10:22:24.660Z,26.33
2023-06-07T10:23:24.759Z,26.44
2023-06-07T10:24:24.729Z,27.66
2023-06-07T10:25:24.673Z,28.54
2023-06-07T10:26:24.634Z,28.73
2023-06-07T10:27:24.608Z,28.59
2023-06-07T10:28:27.639Z,28.71
2023-06-07T10:29:27.114Z,28.98
2023-06-07T10:30:24.574Z,28.80
2023-06-07T10:31:24.622Z,28.58
2023-06-07T10:32:24.610Z,28.96
2023-06-07T10:33:24.594Z,29.98
2023-06-07T10:34:24.560Z,29.18
2023-06-07T10:35:24.533Z,29.14
2023-06-07T10:36:24.797Z,29.11
2023-06-07T10:37:24.500Z,29.21
2023-06-07T10:38:24.538Z,29.31
2023-06-07T10:39:24.541Z,29.05
2023-06-07T10:40:24.480Z,28.88
2023-06-07T10:41:24.477Z,28.68
2023-06-07T10:42:24.460Z,28.66
2023-06-07T10:43:24.433Z,28.51
2023-06-07T10:44:24.453Z,28.52
2023-06-07T10:45:24.414Z,28.56
2023-06-07T10:46:24.981Z,28.98
2023-06-07T10:47:24.546Z,29.14
2023-06-07T10:48:24.449Z,28.73
2023-06-07T10:49:24.402Z,28.71
2023-06-07T10:50:24.645Z,28.68
2023-06-07T10:51:24.367Z,29.09
2023-06-07T10:52:24.418Z,29.33
2023-06-07T10:53:24.374Z,28.98
2023-06-07T10:54:24.372Z,29.19
2023-06-07T10:55:24.338Z,29.73
2023-06-07T10:56:24.353Z,30.17
2023-06-07T10:57:24.302Z,30.24
2023-06-07T10:58:24.347Z,29.97
2023-06-07T10:59:24.345Z,29.73
2023-06-07T11:00:24.308Z,29.74
2023-06-07T11:01:24.306Z,29.45
2023-06-07T11:02:24.964Z,28.77
2023-06-07T11:03:24.787Z,28.55
2023-06-07T11:04:24.406Z,28.85
2023-06-07T11:05:24.292Z,28.48
2023-06-07T11:06:24.258Z,28.27
2023-06-07T11:07:24.233Z,27.96
2023-06-07T11:08:24.206Z,27.66
2023-06-07T11:09:24.204Z,27.62
2023-06-07T11:10:24.248Z,27.41
2023-06-07T11:11:26.369Z,27.36
2023-06-07T11:12:24.157Z,27.28
2023-06-07T11:13:24.132Z,26.77
2023-06-07T11:14:24.149Z,26.48
2023-06-07T11:15:24.140Z,26.35
2023-06-07T11:16:24.336Z,26.37
2023-06-07T11:17:24.153Z,26.51
2023-06-07T11:18:24.156Z,26.05
2023-06-07T11:19:24.073Z,26.02
2023-06-07T11:20:24.137Z,26.15
2023-06-07T11:21:24.106Z,26.67
2023-06-07T11:22:24.075Z,26.84
2023-06-07T11:23:24.394Z,27.03
2023-06-07T11:24:24.151Z,27.18
2023-06-07T11:25:24.061Z,26.66
2023-06-07T11:26:24.004Z,26.45
2023-06-07T11:27:24.020Z,26.54
2023-06-07T11:28:23.998Z,26.60
2023-06-07T11:29:24.012Z,26.97
2023-06-07T11:30:24.029Z,26.82
2023-06-07T11:31:24.064Z,26.70
2023-06-07T11:32:24.186Z,26.84
2023-06-07T11:33:24.050Z,26.51
2023-06-07T11:34:23.963Z,26.40
2023-06-07T11:35:23.944Z,26.67
2023-06-07T11:36:23.919Z,26.43
2023-06-07T11:37:23.896Z,26.51
2023-06-07T11:38:23.931Z,26.26
2023-06-07T11:39:23.873Z,26.18
2023-06-07T11:40:23.883Z,26.06
2023-06-07T11:41:23.842Z,25.98
2023-06-07T11:42:23.904Z,25.82
2023-06-07T11:43:23.845Z,25.91
2023-06-07T11:44:23.837Z,26.29
2023-06-07T11:45:23.816Z,26.60
2023-06-07T11:46:23.883Z,26.43
2023-06-07T11:47:23.958Z,26.30
2023-06-07T11:48:23.848Z,26.17
2023-06-07T11:49:23.805Z,26.09
2023-06-07T11:50:23.772Z,25.82
2023-06-07T11:51:23.759Z,25.72
2023-06-07T11:52:23.748Z,25.54
2023-06-07T11:53:23.721Z,25.45
2023-06-07T11:54:23.716Z,25.27
2023-06-07T11:55:23.757Z,24.98
2023-06-07T11:56:23.713Z,24.77
2023-06-07T11:57:23.678Z,24.90
2023-06-07T11:58:25.389Z,25.17
2023-06-07T11:59:23.661Z,25.15
2023-06-07T12:00:23.664Z,24.65
2023-06-07T12:01:23.669Z,24.30
2023-06-07T12:02:23.769Z,24.22
2023-06-07T12:03:23.877Z,24.40
2023-06-07T12:04:23.692Z,24.67
2023-06-07T12:05:23.612Z,24.95
2023-06-07T12:06:23.616Z,24.96
2023-06-07T12:07:23.596Z,24.96
2023-06-07T12:08:23.998Z,25.09
2023-06-07T12:09:23.573Z,25.21
2023-06-07T12:10:23.568Z,25.23
2023-06-07T12:11:23.551Z,25.35
2023-06-07T12:12:23.570Z,25.57
2023-06-07T12:13:23.509Z,25.77
2023-06-07T12:14:23.510Z,25.75
2023-06-07T12:15:23.516Z,25.32
2023-06-07T12:16:23.554Z,25.09
2023-06-07T12:17:23.501Z,25.14
2023-06-07T12:18:23.479Z,24.93
2023-06-07T12:19:23.479Z,25.05
2023-06-07T12:20:23.438Z,25.27
2023-06-07T12:21:23.415Z,25.28
2023-06-07T12:22:23.401Z,25.36
2023-06-07T12:23:23.431Z,25.51
2023-06-07T12:24:23.393Z,25.62
2023-06-07T12:25:23.422Z,25.73
2023-06-07T12:26:23.405Z,25.80
2023-06-07T12:27:23.342Z,25.79
2023-06-07T12:28:23.340Z,25.61
2023-06-07T12:29:23.321Z,25.30
2023-06-07T12:30:23.349Z,25.15
2023-06-07T12:31:23.457Z,24.90
2023-06-07T12:32:23.300Z,24.78
2023-06-07T12:33:23.275Z,24.50
2023-06-07T12:34:23.278Z,24.57
2023-06-07T12:35:23.303Z,24.71
2023-06-07T12:36:23.324Z,24.90
2023-06-07T12:37:23.248Z,24.80
2023-06-07T12:38:23.215Z,24.67
2023-06-07T12:39:23.206Z,24.60
2023-06-07T12:40:23.232Z,24.34
2023-06-07T12:41:23.218Z,24.10
2023-06-07T12:42:23.172Z,24.09
2023-06-07T12:43:23.208Z,24.30
2023-06-07T12:44:23.183Z,24.49
2023-06-07T12:45:23.206Z,24.45
2023-06-07T12:46:23.198Z,24.60
2023-06-07T12:47:23.178Z,24.60
2023-06-07T12:48:23.129Z,24.58
2023-06-07T12:49:23.122Z,24.43
2023-06-07T12:50:23.094Z,24.13
2023-06-07T12:51:23.211Z,24.10
2023-06-07T12:52:23.102Z,24.13
2023-06-07T12:53:23.053Z,24.08